sensor_id;sensor_type;location;lat;lon;timestamp;P1;durP1;ratioP1;P2;durP2;ratioP2
3953;SDS011;1991;48.682;9.030;2022-07-12T00:01:39;3.65;;;3.28;;
3953;SDS011;1991;48.682;9.030;2022-07-12T00:04:04;2.92;;;2.53;;
3953;SDS011;1991;48.682;9.030;2022-07-12T00:06:30;6.10;;;2.75;;
3953;SDS011;1991;48.682;9.030;2022-07-12T00:08:56;3.08;;;2.63;;
3953;SDS011;1991;48.682;9.030;2022-07-12T00:11:21;2.65;;;2.45;;
3953;SDS011;1991;48.682;9.030;2022-07-12T00:13:47;4.22;;;2.53;;
3953;SDS011;1991;48.682;9.030;2022-07-12T00:16:12;3.40;;;2.97;;
3953;SDS011;1991;48.682;9.030;2022-07-12T00:18:38;3.15;;;2.80;;
3953;SDS011;1991;48.682;9.030;2022-07-12T00:21:04;3.70;;;2.80;;
3953;SDS011;1991;48.682;9.030;2022-07-12T00:23:30;3.10;;;2.80;;
3953;SDS011;1991;48.682;9.030;2022-07-12T00:25:55;3.67;;;2.80;;
3953;SDS011;1991;48.682;9.030;2022-07-12T00:28:21;3.15;;;2.85;;
3953;SDS011;1991;48.682;9.030;2022-07-12T00:30:46;2.65;;;2.40;;
3953;SDS011;1991;48.682;9.030;2022-07-12T00:33:12;3.38;;;2.80;;
3953;SDS011;1991;48.682;9.030;2022-07-12T00:35:38;3.33;;;2.88;;
3953;SDS011;1991;48.682;9.030;2022-07-12T00:38:03;3.00;;;2.78;;
3953;SDS011;1991;48.682;9.030;2022-07-12T00:40:32;3.25;;;2.88;;
3953;SDS011;1991;48.682;9.030;2022-07-12T00:42:58;2.97;;;2.67;;
3953;SDS011;1991;48.682;9.030;2022-07-12T00:45:23;3.55;;;3.03;;
3953;SDS011;1991;48.682;9.030;2022-07-12T00:47:49;4.75;;;3.20;;
3953;SDS011;1991;48.682;9.030;2022-07-12T00:50:17;4.05;;;2.90;;
3953;SDS011;1991;48.682;9.030;2022-07-12T00:52:43;4.22;;;2.75;;
3953;SDS011;1991;48.682;9.030;2022-07-12T00:55:11;3.50;;;3.20;;
3953;SDS011;1991;48.682;9.030;2022-07-12T00:57:38;3.45;;;2.90;;
3953;SDS011;1991;48.682;9.030;2022-07-12T01:00:07;3.42;;;2.75;;
3953;SDS011;1991;48.682;9.030;2022-07-12T01:02:35;3.80;;;2.92;;
3953;SDS011;1991;48.682;9.030;2022-07-12T01:05:02;3.13;;;2.85;;
3953;SDS011;1991;48.682;9.030;2022-07-12T01:07:29;3.80;;;2.90;;
3953;SDS011;1991;48.682;9.030;2022-07-12T01:09:55;4.05;;;3.55;;
3953;SDS011;1991;48.682;9.030;2022-07-12T01:12:21;2.75;;;2.55;;
3953;SDS011;1991;48.682;9.030;2022-07-12T01:14:49;4.72;;;3.10;;
3953;SDS011;1991;48.682;9.030;2022-07-12T01:17:22;4.10;;;2.92;;
3953;SDS011;1991;48.682;9.030;2022-07-12T01:19:49;4.25;;;3.20;;
3953;SDS011;1991;48.682;9.030;2022-07-12T01:22:16;4.13;;;3.15;;
3953;SDS011;1991;48.682;9.030;2022-07-12T01:24:43;4.88;;;3.05;;
3953;SDS011;1991;48.682;9.030;2022-07-12T01:27:10;3.30;;;3.00;;
3953;SDS011;1991;48.682;9.030;2022-07-12T01:29:37;4.05;;;3.40;;
3953;SDS011;1991;48.682;9.030;2022-07-12T01:32:03;3.88;;;2.70;;
3953;SDS011;1991;48.682;9.030;2022-07-12T01:34:49;4.00;;;3.25;;
3953;SDS011;1991;48.682;9.030;2022-07-12T01:37:23;3.50;;;3.20;;
3953;SDS011;1991;48.682;9.030;2022-07-12T01:39:52;3.35;;;2.80;;
3953;SDS011;1991;48.682;9.030;2022-07-12T01:42:19;4.03;;;2.95;;
3953;SDS011;1991;48.682;9.030;2022-07-12T01:44:46;3.50;;;3.00;;
3953;SDS011;1991;48.682;9.030;2022-07-12T01:47:13;4.82;;;3.13;;
3953;SDS011;1991;48.682;9.030;2022-07-12T01:49:38;4.57;;;3.40;;
3953;SDS011;1991;48.682;9.030;2022-07-12T01:52:04;3.38;;;2.97;;
3953;SDS011;1991;48.682;9.030;2022-07-12T01:54:30;3.05;;;2.80;;
3953;SDS011;1991;48.682;9.030;2022-07-12T01:56:56;3.83;;;3.00;;
3953;SDS011;1991;48.682;9.030;2022-07-12T01:59:22;4.15;;;3.22;;
3953;SDS011;1991;48.682;9.030;2022-07-12T02:01:48;3.65;;;3.30;;
3953;SDS011;1991;48.682;9.030;2022-07-12T02:04:16;3.38;;;2.97;;
3953;SDS011;1991;48.682;9.030;2022-07-12T02:06:46;3.38;;;2.97;;
3953;SDS011;1991;48.682;9.030;2022-07-12T02:09:14;4.03;;;3.42;;
3953;SDS011;1991;48.682;9.030;2022-07-12T02:11:40;4.38;;;3.05;;
3953;SDS011;1991;48.682;9.030;2022-07-12T02:14:07;3.50;;;3.03;;
3953;SDS011;1991;48.682;9.030;2022-07-12T02:16:33;4.57;;;3.42;;
3953;SDS011;1991;48.682;9.030;2022-07-12T02:18:59;3.70;;;3.10;;
3953;SDS011;1991;48.682;9.030;2022-07-12T02:21:24;3.92;;;3.05;;
3953;SDS011;1991;48.682;9.030;2022-07-12T02:23:50;4.18;;;3.17;;
3953;SDS011;1991;48.682;9.030;2022-07-12T02:26:16;3.80;;;3.40;;
3953;SDS011;1991;48.682;9.030;2022-07-12T02:28:42;4.28;;;2.95;;
3953;SDS011;1991;48.682;9.030;2022-07-12T02:31:10;6.63;;;3.40;;
3953;SDS011;1991;48.682;9.030;2022-07-12T02:33:36;6.05;;;2.92;;
3953;SDS011;1991;48.682;9.030;2022-07-12T02:36:02;3.42;;;3.20;;
3953;SDS011;1991;48.682;9.030;2022-07-12T02:38:28;4.13;;;3.40;;
3953;SDS011;1991;48.682;9.030;2022-07-12T02:40:54;4.78;;;3.20;;
3953;SDS011;1991;48.682;9.030;2022-07-12T02:43:35;6.18;;;3.40;;
3953;SDS011;1991;48.682;9.030;2022-07-12T02:46:04;3.60;;;3.08;;
3953;SDS011;1991;48.682;9.030;2022-07-12T02:48:34;4.47;;;3.55;;
3953;SDS011;1991;48.682;9.030;2022-07-12T02:51:00;3.22;;;2.90;;
3953;SDS011;1991;48.682;9.030;2022-07-12T02:53:26;3.63;;;3.33;;
3953;SDS011;1991;48.682;9.030;2022-07-12T02:55:52;3.58;;;3.28;;
3953;SDS011;1991;48.682;9.030;2022-07-12T02:58:18;4.45;;;2.97;;
3953;SDS011;1991;48.682;9.030;2022-07-12T03:00:44;3.20;;;2.90;;
3953;SDS011;1991;48.682;9.030;2022-07-12T03:03:28;4.82;;;3.08;;
3953;SDS011;1991;48.682;9.030;2022-07-12T03:05:54;3.22;;;2.92;;
3953;SDS011;1991;48.682;9.030;2022-07-12T03:08:20;3.97;;;3.35;;
3953;SDS011;1991;48.682;9.030;2022-07-12T03:10:46;4.20;;;3.13;;
3953;SDS011;1991;48.682;9.030;2022-07-12T03:13:12;3.53;;;2.88;;
3953;SDS011;1991;48.682;9.030;2022-07-12T03:15:37;3.60;;;3.35;;
3953;SDS011;1991;48.682;9.030;2022-07-12T03:18:03;3.67;;;3.22;;
3953;SDS011;1991;48.682;9.030;2022-07-12T03:20:29;4.35;;;2.97;;
3953;SDS011;1991;48.682;9.030;2022-07-12T03:22:57;4.93;;;3.10;;
3953;SDS011;1991;48.682;9.030;2022-07-12T03:25:23;4.72;;;3.40;;
3953;SDS011;1991;48.682;9.030;2022-07-12T03:27:59;3.75;;;3.42;;
3953;SDS011;1991;48.682;9.030;2022-07-12T03:32:53;5.20;;;3.40;;
3953;SDS011;1991;48.682;9.030;2022-07-12T03:35:18;4.82;;;3.35;;
3953;SDS011;1991;48.682;9.030;2022-07-12T03:37:48;3.35;;;2.78;;
3953;SDS011;1991;48.682;9.030;2022-07-12T03:40:15;4.40;;;3.58;;
3953;SDS011;1991;48.682;9.030;2022-07-12T03:42:44;3.58;;;3.28;;
3953;SDS011;1991;48.682;9.030;2022-07-12T03:45:13;4.15;;;2.90;;
3953;SDS011;1991;48.682;9.030;2022-07-12T03:47:40;3.78;;;3.17;;
3953;SDS011;1991;48.682;9.030;2022-07-12T03:50:07;4.20;;;3.25;;
3953;SDS011;1991;48.682;9.030;2022-07-12T03:52:36;5.43;;;3.35;;
3953;SDS011;1991;48.682;9.030;2022-07-12T03:55:01;4.10;;;3.08;;
3953;SDS011;1991;48.682;9.030;2022-07-12T03:57:28;3.60;;;3.30;;
3953;SDS011;1991;48.682;9.030;2022-07-12T03:59:54;3.55;;;3.25;;
3953;SDS011;1991;48.682;9.030;2022-07-12T04:02:21;3.30;;;3.00;;
3953;SDS011;1991;48.682;9.030;2022-07-12T04:04:46;3.30;;;3.00;;
3953;SDS011;1991;48.682;9.030;2022-07-12T04:07:12;4.47;;;3.47;;
3953;SDS011;1991;48.682;9.030;2022-07-12T04:09:38;3.80;;;3.45;;
3953;SDS011;1991;48.682;9.030;2022-07-12T04:12:03;6.88;;;3.10;;
3953;SDS011;1991;48.682;9.030;2022-07-12T04:14:30;4.85;;;3.42;;
3953;SDS011;1991;48.682;9.030;2022-07-12T04:16:56;4.35;;;3.17;;
3953;SDS011;1991;48.682;9.030;2022-07-12T04:19:21;4.65;;;3.40;;
3953;SDS011;1991;48.682;9.030;2022-07-12T04:21:52;3.67;;;3.38;;
3953;SDS011;1991;48.682;9.030;2022-07-12T04:24:21;3.33;;;3.03;;
3953;SDS011;1991;48.682;9.030;2022-07-12T04:26:49;4.07;;;3.40;;
3953;SDS011;1991;48.682;9.030;2022-07-12T04:29:15;3.45;;;3.15;;
3953;SDS011;1991;48.682;9.030;2022-07-12T04:31:42;4.85;;;3.50;;
3953;SDS011;1991;48.682;9.030;2022-07-12T04:34:08;3.95;;;3.55;;
3953;SDS011;1991;48.682;9.030;2022-07-12T04:36:34;5.55;;;3.33;;
3953;SDS011;1991;48.682;9.030;2022-07-12T04:39:00;3.72;;;3.30;;
3953;SDS011;1991;48.682;9.030;2022-07-12T04:41:25;3.75;;;3.40;;
3953;SDS011;1991;48.682;9.030;2022-07-12T04:43:51;3.15;;;2.95;;
3953;SDS011;1991;48.682;9.030;2022-07-12T04:46:16;3.40;;;3.10;;
3953;SDS011;1991;48.682;9.030;2022-07-12T04:48:47;3.90;;;3.20;;
3953;SDS011;1991;48.682;9.030;2022-07-12T04:51:13;5.75;;;3.53;;
3953;SDS011;1991;48.682;9.030;2022-07-12T04:53:40;5.20;;;3.50;;
3953;SDS011;1991;48.682;9.030;2022-07-12T04:56:06;3.60;;;3.25;;
3953;SDS011;1991;48.682;9.030;2022-07-12T04:58:31;4.25;;;3.47;;
3953;SDS011;1991;48.682;9.030;2022-07-12T05:00:57;4.97;;;3.40;;
3953;SDS011;1991;48.682;9.030;2022-07-12T05:03:22;6.00;;;3.50;;
3953;SDS011;1991;48.682;9.030;2022-07-12T05:05:52;4.03;;;3.58;;
3953;SDS011;1991;48.682;9.030;2022-07-12T05:08:18;4.70;;;3.75;;
3953;SDS011;1991;48.682;9.030;2022-07-12T05:10:44;6.85;;;3.42;;
3953;SDS011;1991;48.682;9.030;2022-07-12T05:13:09;5.35;;;3.65;;
3953;SDS011;1991;48.682;9.030;2022-07-12T05:15:35;4.90;;;3.65;;
3953;SDS011;1991;48.682;9.030;2022-07-12T05:18:01;4.43;;;3.53;;
3953;SDS011;1991;48.682;9.030;2022-07-12T05:20:26;7.43;;;3.75;;
3953;SDS011;1991;48.682;9.030;2022-07-12T05:22:52;4.03;;;3.63;;
3953;SDS011;1991;48.682;9.030;2022-07-12T05:25:18;5.50;;;3.50;;
3953;SDS011;1991;48.682;9.030;2022-07-12T05:27:45;4.35;;;3.60;;
3953;SDS011;1991;48.682;9.030;2022-07-12T05:30:10;4.13;;;3.83;;
3953;SDS011;1991;48.682;9.030;2022-07-12T05:32:36;4.22;;;3.35;;
3953;SDS011;1991;48.682;9.030;2022-07-12T05:35:01;6.13;;;3.78;;
3953;SDS011;1991;48.682;9.030;2022-07-12T05:37:27;5.13;;;3.97;;
3953;SDS011;1991;48.682;9.030;2022-07-12T05:39:53;5.43;;;3.95;;
3953;SDS011;1991;48.682;9.030;2022-07-12T05:42:18;4.45;;;3.72;;
3953;SDS011;1991;48.682;9.030;2022-07-12T05:44:44;5.53;;;3.80;;
3953;SDS011;1991;48.682;9.030;2022-07-12T05:47:10;3.70;;;3.13;;
3953;SDS011;1991;48.682;9.030;2022-07-12T05:49:36;7.22;;;3.75;;
3953;SDS011;1991;48.682;9.030;2022-07-12T05:52:01;3.80;;;3.30;;
3953;SDS011;1991;48.682;9.030;2022-07-12T05:54:47;6.85;;;3.33;;
3953;SDS011;1991;48.682;9.030;2022-07-12T05:57:13;5.85;;;3.92;;
3953;SDS011;1991;48.682;9.030;2022-07-12T05:59:40;5.18;;;3.60;;
3953;SDS011;1991;48.682;9.030;2022-07-12T06:02:05;6.10;;;2.92;;
3953;SDS011;1991;48.682;9.030;2022-07-12T06:04:31;2.15;;;1.92;;
3953;SDS011;1991;48.682;9.030;2022-07-12T06:06:57;1.80;;;1.70;;
3953;SDS011;1991;48.682;9.030;2022-07-12T06:09:23;3.75;;;1.58;;
3953;SDS011;1991;48.682;9.030;2022-07-12T06:11:48;1.63;;;1.50;;
3953;SDS011;1991;48.682;9.030;2022-07-12T06:14:14;1.40;;;1.00;;
3953;SDS011;1991;48.682;9.030;2022-07-12T06:16:39;2.15;;;1.50;;
3953;SDS011;1991;48.682;9.030;2022-07-12T06:19:05;2.72;;;1.17;;
3953;SDS011;1991;48.682;9.030;2022-07-12T06:21:30;1.55;;;1.25;;
3953;SDS011;1991;48.682;9.030;2022-07-12T06:23:56;1.40;;;1.23;;
3953;SDS011;1991;48.682;9.030;2022-07-12T06:26:22;3.60;;;1.27;;
3953;SDS011;1991;48.682;9.030;2022-07-12T06:28:47;1.40;;;1.08;;
3953;SDS011;1991;48.682;9.030;2022-07-12T06:31:13;1.52;;;1.15;;
3953;SDS011;1991;48.682;9.030;2022-07-12T06:33:38;2.20;;;1.20;;
3953;SDS011;1991;48.682;9.030;2022-07-12T06:36:04;1.10;;;1.08;;
3953;SDS011;1991;48.682;9.030;2022-07-12T06:38:30;1.15;;;0.95;;
3953;SDS011;1991;48.682;9.030;2022-07-12T06:40:56;2.67;;;1.20;;
3953;SDS011;1991;48.682;9.030;2022-07-12T06:43:21;1.63;;;1.00;;
3953;SDS011;1991;48.682;9.030;2022-07-12T06:45:47;2.60;;;1.30;;
3953;SDS011;1991;48.682;9.030;2022-07-12T06:48:13;2.05;;;0.98;;
3953;SDS011;1991;48.682;9.030;2022-07-12T06:50:38;1.13;;;0.90;;
3953;SDS011;1991;48.682;9.030;2022-07-12T06:53:04;1.90;;;1.02;;
3953;SDS011;1991;48.682;9.030;2022-07-12T06:55:29;1.58;;;0.65;;
3953;SDS011;1991;48.682;9.030;2022-07-12T06:57:55;1.80;;;1.20;;
3953;SDS011;1991;48.682;9.030;2022-07-12T07:00:21;3.08;;;0.95;;
3953;SDS011;1991;48.682;9.030;2022-07-12T07:02:46;4.55;;;0.90;;
3953;SDS011;1991;48.682;9.030;2022-07-12T07:05:12;1.55;;;1.17;;
3953;SDS011;1991;48.682;9.030;2022-07-12T07:07:40;3.85;;;1.33;;
3953;SDS011;1991;48.682;9.030;2022-07-12T07:10:06;1.58;;;1.10;;
3953;SDS011;1991;48.682;9.030;2022-07-12T07:12:32;1.17;;;1.10;;
3953;SDS011;1991;48.682;9.030;2022-07-12T07:14:57;2.83;;;1.30;;
3953;SDS011;1991;48.682;9.030;2022-07-12T07:17:23;4.60;;;1.15;;
3953;SDS011;1991;48.682;9.030;2022-07-12T07:19:49;2.50;;;1.30;;
3953;SDS011;1991;48.682;9.030;2022-07-12T07:22:14;1.42;;;0.95;;
3953;SDS011;1991;48.682;9.030;2022-07-12T07:24:40;1.33;;;0.80;;
3953;SDS011;1991;48.682;9.030;2022-07-12T07:27:06;1.13;;;1.00;;
3953;SDS011;1991;48.682;9.030;2022-07-12T07:29:33;1.20;;;1.10;;
3953;SDS011;1991;48.682;9.030;2022-07-12T07:32:22;1.00;;;0.90;;
3953;SDS011;1991;48.682;9.030;2022-07-12T07:34:48;1.75;;;0.93;;
3953;SDS011;1991;48.682;9.030;2022-07-12T07:37:13;1.00;;;0.70;;
3953;SDS011;1991;48.682;9.030;2022-07-12T07:39:39;1.05;;;0.60;;
3953;SDS011;1991;48.682;9.030;2022-07-12T07:42:05;0.88;;;0.70;;
3953;SDS011;1991;48.682;9.030;2022-07-12T07:44:30;1.88;;;0.73;;
3953;SDS011;1991;48.682;9.030;2022-07-12T07:46:56;1.55;;;0.73;;
3953;SDS011;1991;48.682;9.030;2022-07-12T07:49:22;0.52;;;0.50;;
3953;SDS011;1991;48.682;9.030;2022-07-12T07:51:47;0.45;;;0.40;;
3953;SDS011;1991;48.682;9.030;2022-07-12T07:54:13;0.60;;;0.50;;
3953;SDS011;1991;48.682;9.030;2022-07-12T07:56:40;0.95;;;0.30;;
3953;SDS011;1991;48.682;9.030;2022-07-12T07:59:05;0.80;;;0.70;;
3953;SDS011;1991;48.682;9.030;2022-07-12T08:01:32;0.50;;;0.50;;
3953;SDS011;1991;48.682;9.030;2022-07-12T08:04:10;5.07;;;0.73;;
3953;SDS011;1991;48.682;9.030;2022-07-12T08:06:36;7.28;;;1.25;;
3953;SDS011;1991;48.682;9.030;2022-07-12T08:09:01;8.70;;;1.33;;
3953;SDS011;1991;48.682;9.030;2022-07-12T08:11:28;0.80;;;0.70;;
3953;SDS011;1991;48.682;9.030;2022-07-12T08:13:53;26.77;;;1.88;;
3953;SDS011;1991;48.682;9.030;2022-07-12T08:16:19;0.75;;;0.63;;
3953;SDS011;1991;48.682;9.030;2022-07-12T08:18:44;1.02;;;0.70;;
3953;SDS011;1991;48.682;9.030;2022-07-12T08:21:11;0.63;;;0.40;;
3953;SDS011;1991;48.682;9.030;2022-07-12T08:23:37;1.40;;;0.60;;
3953;SDS011;1991;48.682;9.030;2022-07-12T08:26:02;0.85;;;0.65;;
3953;SDS011;1991;48.682;9.030;2022-07-12T08:28:28;1.35;;;0.90;;
3953;SDS011;1991;48.682;9.030;2022-07-12T08:30:54;1.17;;;0.70;;
3953;SDS011;1991;48.682;9.030;2022-07-12T08:33:21;5.53;;;0.90;;
3953;SDS011;1991;48.682;9.030;2022-07-12T08:35:47;3.10;;;0.85;;
3953;SDS011;1991;48.682;9.030;2022-07-12T08:38:12;1.90;;;0.70;;
3953;SDS011;1991;48.682;9.030;2022-07-12T08:40:40;1.90;;;0.80;;
3953;SDS011;1991;48.682;9.030;2022-07-12T08:43:06;2.00;;;0.60;;
3953;SDS011;1991;48.682;9.030;2022-07-12T08:45:32;0.85;;;0.65;;
3953;SDS011;1991;48.682;9.030;2022-07-12T08:47:58;2.38;;;0.80;;
3953;SDS011;1991;48.682;9.030;2022-07-12T08:50:24;1.23;;;0.63;;
3953;SDS011;1991;48.682;9.030;2022-07-12T08:52:52;1.15;;;0.70;;
3953;SDS011;1991;48.682;9.030;2022-07-12T08:55:23;0.77;;;0.70;;
3953;SDS011;1991;48.682;9.030;2022-07-12T08:57:51;1.27;;;0.70;;
3953;SDS011;1991;48.682;9.030;2022-07-12T09:00:19;0.93;;;0.75;;
3953;SDS011;1991;48.682;9.030;2022-07-12T09:02:45;0.95;;;0.75;;
3953;SDS011;1991;48.682;9.030;2022-07-12T09:05:17;2.60;;;0.68;;
3953;SDS011;1991;48.682;9.030;2022-07-12T09:07:43;2.88;;;0.68;;
3953;SDS011;1991;48.682;9.030;2022-07-12T09:10:10;2.55;;;0.70;;
3953;SDS011;1991;48.682;9.030;2022-07-12T09:12:37;2.25;;;0.98;;
3953;SDS011;1991;48.682;9.030;2022-07-12T09:17:39;1.90;;;1.23;;
3953;SDS011;1991;48.682;9.030;2022-07-12T09:20:08;1.52;;;0.90;;
3953;SDS011;1991;48.682;9.030;2022-07-12T09:22:35;1.10;;;0.93;;
3953;SDS011;1991;48.682;9.030;2022-07-12T09:25:17;2.05;;;0.95;;
3953;SDS011;1991;48.682;9.030;2022-07-12T09:27:46;2.33;;;1.15;;
3953;SDS011;1991;48.682;9.030;2022-07-12T09:30:21;2.08;;;0.90;;
3953;SDS011;1991;48.682;9.030;2022-07-12T09:33:01;1.58;;;1.20;;
3953;SDS011;1991;48.682;9.030;2022-07-12T09:41:14;1.48;;;1.00;;
3953;SDS011;1991;48.682;9.030;2022-07-12T09:43:42;2.58;;;1.00;;
3953;SDS011;1991;48.682;9.030;2022-07-12T09:46:09;2.40;;;0.85;;
3953;SDS011;1991;48.682;9.030;2022-07-12T09:48:35;2.08;;;0.98;;
3953;SDS011;1991;48.682;9.030;2022-07-12T09:51:03;1.90;;;1.20;;
3953;SDS011;1991;48.682;9.030;2022-07-12T09:53:32;1.83;;;1.20;;
3953;SDS011;1991;48.682;9.030;2022-07-12T09:56:03;2.78;;;1.00;;
3953;SDS011;1991;48.682;9.030;2022-07-12T10:01:16;1.35;;;1.00;;
3953;SDS011;1991;48.682;9.030;2022-07-12T10:03:42;1.20;;;1.10;;
3953;SDS011;1991;48.682;9.030;2022-07-12T10:06:13;3.40;;;0.77;;
3953;SDS011;1991;48.682;9.030;2022-07-12T10:08:51;1.50;;;0.95;;
3953;SDS011;1991;48.682;9.030;2022-07-12T10:11:17;2.80;;;1.10;;
3953;SDS011;1991;48.682;9.030;2022-07-12T10:13:44;3.13;;;1.00;;
3953;SDS011;1991;48.682;9.030;2022-07-12T10:16:13;1.63;;;1.00;;
3953;SDS011;1991;48.682;9.030;2022-07-12T10:18:40;0.80;;;0.65;;
3953;SDS011;1991;48.682;9.030;2022-07-12T10:21:21;0.80;;;0.80;;
3953;SDS011;1991;48.682;9.030;2022-07-12T10:23:49;1.88;;;0.82;;
3953;SDS011;1991;48.682;9.030;2022-07-12T10:31:45;0.77;;;0.77;;
3953;SDS011;1991;48.682;9.030;2022-07-12T10:39:20;2.17;;;0.80;;
3953;SDS011;1991;48.682;9.030;2022-07-12T10:44:37;0.70;;;0.70;;
3953;SDS011;1991;48.682;9.030;2022-07-12T10:47:11;1.13;;;0.60;;
3953;SDS011;1991;48.682;9.030;2022-07-12T10:49:43;1.15;;;0.50;;
3953;SDS011;1991;48.682;9.030;2022-07-12T10:52:13;0.70;;;0.70;;
3953;SDS011;1991;48.682;9.030;2022-07-12T10:54:46;0.82;;;0.50;;
3953;SDS011;1991;48.682;9.030;2022-07-12T10:57:46;1.75;;;0.82;;
3953;SDS011;1991;48.682;9.030;2022-07-12T11:00:15;0.80;;;0.60;;
3953;SDS011;1991;48.682;9.030;2022-07-12T11:02:42;1.00;;;0.60;;
3953;SDS011;1991;48.682;9.030;2022-07-12T11:05:08;0.50;;;0.50;;
3953;SDS011;1991;48.682;9.030;2022-07-12T11:07:34;1.75;;;0.60;;
3953;SDS011;1991;48.682;9.030;2022-07-12T11:10:00;0.98;;;0.50;;
3953;SDS011;1991;48.682;9.030;2022-07-12T11:12:29;1.45;;;0.50;;
3953;SDS011;1991;48.682;9.030;2022-07-12T11:14:56;7.10;;;0.73;;
3953;SDS011;1991;48.682;9.030;2022-07-12T11:17:27;0.82;;;0.50;;
3953;SDS011;1991;48.682;9.030;2022-07-12T11:20:05;0.40;;;0.40;;
3953;SDS011;1991;48.682;9.030;2022-07-12T11:22:31;0.70;;;0.40;;
3953;SDS011;1991;48.682;9.030;2022-07-12T11:24:58;0.60;;;0.35;;
3953;SDS011;1991;48.682;9.030;2022-07-12T11:27:25;0.30;;;0.30;;
3953;SDS011;1991;48.682;9.030;2022-07-12T11:29:58;0.38;;;0.30;;
3953;SDS011;1991;48.682;9.030;2022-07-12T11:32:34;0.55;;;0.50;;
3953;SDS011;1991;48.682;9.030;2022-07-12T11:35:01;0.40;;;0.40;;
3953;SDS011;1991;48.682;9.030;2022-07-12T11:37:27;0.43;;;0.40;;
3953;SDS011;1991;48.682;9.030;2022-07-12T11:39:53;1.95;;;0.30;;
3953;SDS011;1991;48.682;9.030;2022-07-12T11:42:18;2.53;;;0.57;;
3953;SDS011;1991;48.682;9.030;2022-07-12T11:47:11;0.40;;;0.40;;
3953;SDS011;1991;48.682;9.030;2022-07-12T11:49:49;2.47;;;0.40;;
3953;SDS011;1991;48.682;9.030;2022-07-12T11:52:21;0.40;;;0.40;;
3953;SDS011;1991;48.682;9.030;2022-07-12T11:54:49;3.22;;;0.70;;
3953;SDS011;1991;48.682;9.030;2022-07-12T11:57:18;2.03;;;0.60;;
3953;SDS011;1991;48.682;9.030;2022-07-12T11:59:46;1.00;;;0.50;;
3953;SDS011;1991;48.682;9.030;2022-07-12T12:02:13;0.50;;;0.40;;
3953;SDS011;1991;48.682;9.030;2022-07-12T12:04:51;1.90;;;0.60;;
3953;SDS011;1991;48.682;9.030;2022-07-12T12:07:20;0.85;;;0.35;;
3953;SDS011;1991;48.682;9.030;2022-07-12T12:12:25;2.30;;;0.50;;
3953;SDS011;1991;48.682;9.030;2022-07-12T12:15:06;0.50;;;0.40;;
3953;SDS011;1991;48.682;9.030;2022-07-12T12:17:34;0.93;;;0.30;;
3953;SDS011;1991;48.682;9.030;2022-07-12T12:20:08;1.73;;;0.45;;
3953;SDS011;1991;48.682;9.030;2022-07-12T12:22:35;8.63;;;0.90;;
3953;SDS011;1991;48.682;9.030;2022-07-12T12:25:06;5.05;;;0.90;;
3953;SDS011;1991;48.682;9.030;2022-07-12T12:27:44;1.58;;;0.45;;
3953;SDS011;1991;48.682;9.030;2022-07-12T12:30:11;1.95;;;0.50;;
3953;SDS011;1991;48.682;9.030;2022-07-12T12:35:11;3.60;;;0.38;;
3953;SDS011;1991;48.682;9.030;2022-07-12T12:37:37;1.95;;;0.50;;
3953;SDS011;1991;48.682;9.030;2022-07-12T12:40:03;1.15;;;0.40;;
3953;SDS011;1991;48.682;9.030;2022-07-12T12:42:30;0.82;;;0.60;;
3953;SDS011;1991;48.682;9.030;2022-07-12T12:44:55;0.40;;;0.25;;
3953;SDS011;1991;48.682;9.030;2022-07-12T12:47:21;0.45;;;0.30;;
3953;SDS011;1991;48.682;9.030;2022-07-12T12:49:55;4.05;;;0.40;;
3953;SDS011;1991;48.682;9.030;2022-07-12T12:52:22;1.73;;;0.50;;
3953;SDS011;1991;48.682;9.030;2022-07-12T12:54:50;1.48;;;0.43;;
3953;SDS011;1991;48.682;9.030;2022-07-12T12:57:15;1.48;;;0.43;;
3953;SDS011;1991;48.682;9.030;2022-07-12T12:59:41;0.57;;;0.30;;
3953;SDS011;1991;48.682;9.030;2022-07-12T13:02:07;0.40;;;0.40;;
3953;SDS011;1991;48.682;9.030;2022-07-12T13:04:34;0.80;;;0.30;;
3953;SDS011;1991;48.682;9.030;2022-07-12T13:07:00;0.57;;;0.50;;
3953;SDS011;1991;48.682;9.030;2022-07-12T13:09:28;0.88;;;0.50;;
3953;SDS011;1991;48.682;9.030;2022-07-12T13:11:55;0.95;;;0.50;;
3953;SDS011;1991;48.682;9.030;2022-07-12T13:14:21;1.17;;;0.70;;
3953;SDS011;1991;48.682;9.030;2022-07-12T13:16:47;0.40;;;0.30;;
3953;SDS011;1991;48.682;9.030;2022-07-12T13:19:13;0.40;;;0.30;;
3953;SDS011;1991;48.682;9.030;2022-07-12T13:21:39;3.22;;;0.52;;
3953;SDS011;1991;48.682;9.030;2022-07-12T13:24:04;0.85;;;0.40;;
3953;SDS011;1991;48.682;9.030;2022-07-12T13:26:30;2.60;;;0.57;;
3953;SDS011;1991;48.682;9.030;2022-07-12T13:28:56;2.88;;;0.30;;
3953;SDS011;1991;48.682;9.030;2022-07-12T13:31:22;1.83;;;0.40;;
3953;SDS011;1991;48.682;9.030;2022-07-12T13:33:48;0.73;;;0.30;;
3953;SDS011;1991;48.682;9.030;2022-07-12T13:36:14;4.13;;;0.40;;
3953;SDS011;1991;48.682;9.030;2022-07-12T13:38:40;1.65;;;0.35;;
3953;SDS011;1991;48.682;9.030;2022-07-12T13:41:06;0.30;;;0.20;;
3953;SDS011;1991;48.682;9.030;2022-07-12T13:43:32;2.13;;;0.40;;
3953;SDS011;1991;48.682;9.030;2022-07-12T13:45:58;1.17;;;0.32;;
3953;SDS011;1991;48.682;9.030;2022-07-12T13:48:24;2.05;;;0.40;;
3953;SDS011;1991;48.682;9.030;2022-07-12T13:50:49;1.75;;;0.30;;
3953;SDS011;1991;48.682;9.030;2022-07-12T13:53:15;0.50;;;0.40;;
3953;SDS011;1991;48.682;9.030;2022-07-12T13:55:42;0.45;;;0.40;;
3953;SDS011;1991;48.682;9.030;2022-07-12T13:58:08;0.45;;;0.40;;
3953;SDS011;1991;48.682;9.030;2022-07-12T14:00:34;1.10;;;0.40;;
3953;SDS011;1991;48.682;9.030;2022-07-12T14:03:00;0.40;;;0.40;;
3953;SDS011;1991;48.682;9.030;2022-07-12T14:05:26;1.00;;;0.50;;
3953;SDS011;1991;48.682;9.030;2022-07-12T14:07:52;1.85;;;0.38;;
3953;SDS011;1991;48.682;9.030;2022-07-12T14:10:18;1.73;;;0.40;;
3953;SDS011;1991;48.682;9.030;2022-07-12T14:12:45;0.30;;;0.30;;
3953;SDS011;1991;48.682;9.030;2022-07-12T14:15:11;1.10;;;0.38;;
3953;SDS011;1991;48.682;9.030;2022-07-12T14:17:37;0.60;;;0.40;;
3953;SDS011;1991;48.682;9.030;2022-07-12T14:20:04;0.45;;;0.45;;
3953;SDS011;1991;48.682;9.030;2022-07-12T14:22:30;0.70;;;0.70;;
3953;SDS011;1991;48.682;9.030;2022-07-12T14:24:56;1.40;;;0.45;;
3953;SDS011;1991;48.682;9.030;2022-07-12T14:27:22;0.85;;;0.40;;
3953;SDS011;1991;48.682;9.030;2022-07-12T14:29:47;2.92;;;0.95;;
3953;SDS011;1991;48.682;9.030;2022-07-12T14:32:13;1.75;;;0.63;;
3953;SDS011;1991;48.682;9.030;2022-07-12T14:34:39;4.00;;;0.40;;
3953;SDS011;1991;48.682;9.030;2022-07-12T14:37:05;1.42;;;0.30;;
3953;SDS011;1991;48.682;9.030;2022-07-12T14:39:31;0.65;;;0.38;;
3953;SDS011;1991;48.682;9.030;2022-07-12T14:41:56;1.00;;;0.40;;
3953;SDS011;1991;48.682;9.030;2022-07-12T14:44:22;2.75;;;0.40;;
3953;SDS011;1991;48.682;9.030;2022-07-12T14:46:48;2.88;;;0.40;;
3953;SDS011;1991;48.682;9.030;2022-07-12T14:49:14;2.53;;;0.70;;
3953;SDS011;1991;48.682;9.030;2022-07-12T14:51:39;0.90;;;0.32;;
3953;SDS011;1991;48.682;9.030;2022-07-12T14:54:05;2.20;;;0.40;;
3953;SDS011;1991;48.682;9.030;2022-07-12T14:56:31;1.70;;;0.80;;
3953;SDS011;1991;48.682;9.030;2022-07-12T14:58:56;2.13;;;0.80;;
3953;SDS011;1991;48.682;9.030;2022-07-12T15:01:22;0.65;;;0.40;;
3953;SDS011;1991;48.682;9.030;2022-07-12T15:03:47;0.85;;;0.30;;
3953;SDS011;1991;48.682;9.030;2022-07-12T15:06:13;2.90;;;0.47;;
3953;SDS011;1991;48.682;9.030;2022-07-12T15:08:39;1.75;;;0.40;;
3953;SDS011;1991;48.682;9.030;2022-07-12T15:11:04;1.77;;;0.40;;
3953;SDS011;1991;48.682;9.030;2022-07-12T15:13:30;0.20;;;0.20;;
3953;SDS011;1991;48.682;9.030;2022-07-12T15:15:56;0.47;;;0.30;;
3953;SDS011;1991;48.682;9.030;2022-07-12T15:18:22;0.88;;;0.38;;
3953;SDS011;1991;48.682;9.030;2022-07-12T15:20:49;0.30;;;0.25;;
3953;SDS011;1991;48.682;9.030;2022-07-12T15:23:15;1.55;;;0.35;;
3953;SDS011;1991;48.682;9.030;2022-07-12T15:25:40;3.25;;;0.47;;
3953;SDS011;1991;48.682;9.030;2022-07-12T15:28:06;4.05;;;0.47;;
3953;SDS011;1991;48.682;9.030;2022-07-12T15:30:32;3.75;;;0.35;;
3953;SDS011;1991;48.682;9.030;2022-07-12T15:32:58;1.77;;;1.08;;
3953;SDS011;1991;48.682;9.030;2022-07-12T15:35:24;0.90;;;0.30;;
3953;SDS011;1991;48.682;9.030;2022-07-12T15:37:50;3.03;;;0.38;;
3953;SDS011;1991;48.682;9.030;2022-07-12T15:40:15;0.77;;;0.40;;
3953;SDS011;1991;48.682;9.030;2022-07-12T15:42:41;4.82;;;0.57;;
3953;SDS011;1991;48.682;9.030;2022-07-12T15:45:07;1.55;;;0.40;;
3953;SDS011;1991;48.682;9.030;2022-07-12T15:47:34;2.10;;;0.40;;
3953;SDS011;1991;48.682;9.030;2022-07-12T15:49:59;2.50;;;0.38;;